createdAt,value
2022-10-11T04:01:49.509Z,101076.63
2022-10-11T04:04:51.997Z,101076.63
2022-10-11T04:07:54.029Z,101079.72
2022-10-11T04:10:56.337Z,101068.91
2022-10-11T04:13:58.575Z,101074.19
2022-10-11T04:17:00.866Z,101078.91
2022-10-11T04:20:03.195Z,101080.44
2022-10-11T04:23:05.591Z,101084.22
2022-10-11T04:26:09.181Z,101083.34
2022-10-11T04:29:11.828Z,101085.84
2022-10-11T04:32:13.866Z,101085.81
2022-10-11T04:35:16.305Z,101084.13
2022-10-11T04:38:18.331Z,101082.56
2022-10-11T04:41:20.626Z,101086.09
2022-10-11T04:44:22.702Z,101081.03
2022-10-11T04:47:25.137Z,101080.00
2022-10-11T04:50:27.209Z,101075.03
2022-10-11T04:53:32.606Z,101072.62
2022-10-11T04:56:34.652Z,101070.97
2022-10-11T04:59:36.983Z,101074.88
2022-10-11T05:02:39.042Z,101078.94
2022-10-11T05:05:41.354Z,101088.84
2022-10-11T05:08:43.415Z,101080.72
2022-10-11T05:11:45.769Z,101078.59
2022-10-11T05:14:47.837Z,101094.13
2022-10-11T05:17:50.127Z,101091.31
2022-10-11T05:21:19.723Z,101086.81
2022-10-11T05:24:22.021Z,101097.53
2022-10-11T05:27:24.046Z,101095.66
2022-10-11T05:30:26.487Z,101100.75
2022-10-11T05:33:28.544Z,101097.69
2022-10-11T05:36:31.091Z,101103.44
2022-10-11T05:39:33.103Z,101099.38
2022-10-11T05:42:35.388Z,101108.72
2022-10-11T05:45:39.114Z,101117.38
2022-10-11T05:48:41.410Z,101119.00
2022-10-11T05:51:44.158Z,101116.53
2022-10-11T05:54:46.446Z,101118.34
2022-10-11T05:57:48.485Z,101122.63
2022-10-11T06:00:50.878Z,101121.25
2022-10-11T06:03:53.674Z,101126.66
2022-10-11T06:06:55.726Z,101136.31
2022-10-11T06:09:58.033Z,101133.69
2022-10-11T06:13:00.184Z,101136.97
2022-10-11T06:16:06.544Z,101144.41
2022-10-11T06:19:09.230Z,101146.63
2022-10-11T06:22:12.359Z,101149.59
2022-10-11T06:25:14.422Z,101149.59
2022-10-11T06:28:16.780Z,101141.13
2022-10-11T06:31:18.838Z,101145.91
2022-10-11T06:34:21.461Z,101147.72
2022-10-11T06:37:23.472Z,101149.19
2022-10-11T06:40:25.782Z,101143.34
2022-10-11T06:43:28.003Z,101145.81
2022-10-11T06:46:31.584Z,101143.28
2022-10-11T06:49:33.998Z,101145.91
2022-10-11T06:52:36.690Z,101150.00
2022-10-11T06:55:39.584Z,101144.59
2022-10-11T06:58:42.012Z,101148.47
2022-10-11T07:01:44.181Z,101152.47
2022-10-11T07:04:46.532Z,101157.22
2022-10-11T07:07:48.566Z,101162.84
2022-10-11T07:10:51.504Z,101165.03
2022-10-11T07:13:59.318Z,101166.34
2022-10-11T07:17:01.616Z,101164.50
2022-10-11T07:20:04.206Z,101162.53
2022-10-11T07:23:06.518Z,101167.28
2022-10-11T07:26:10.512Z,101161.69
2022-10-11T07:29:13.108Z,101158.66
2022-10-11T07:32:16.415Z,101158.81
2022-10-11T07:35:18.904Z,101157.06
2022-10-11T07:38:20.941Z,101160.25
2022-10-11T07:41:24.060Z,101161.00
2022-10-11T07:44:26.329Z,101168.75
2022-10-11T07:47:28.783Z,101164.88
2022-10-11T07:50:31.020Z,101169.31
2022-10-11T07:53:44.796Z,101164.16
2022-10-11T07:56:46.830Z,101168.22
2022-10-11T07:59:50.362Z,101165.41
2022-10-11T08:02:52.569Z,101170.81
2022-10-11T08:06:00.260Z,101175.31
2022-10-11T08:09:02.707Z,101160.00
2022-10-11T08:12:05.101Z,101166.81
2022-10-11T08:15:07.512Z,101167.00
2022-10-11T08:18:09.811Z,101173.03
2022-10-11T08:21:13.898Z,101173.25
2022-10-11T08:24:20.617Z,101172.25
2022-10-11T08:27:22.694Z,101168.63
2022-10-11T08:30:25.115Z,101176.16
2022-10-11T08:33:27.293Z,101177.59
2022-10-11T08:36:29.606Z,101174.69
2022-10-11T08:39:32.214Z,101169.47
2022-10-11T08:42:45.482Z,101175.81
2022-10-11T08:45:52.501Z,101170.19
2022-10-11T08:48:55.303Z,101172.28
2022-10-11T08:52:02.584Z,101178.72
2022-10-11T08:55:08.240Z,101166.91
2022-10-11T08:58:15.094Z,101171.72
2022-10-11T09:01:22.309Z,101168.87
2022-10-11T09:04:24.413Z,101167.38
2022-10-11T09:07:44.750Z,101169.06
2022-10-11T09:11:35.006Z,101171.50
2022-10-11T09:14:55.389Z,101169.59
2022-10-11T09:18:19.167Z,101174.09
2022-10-11T09:22:12.906Z,101175.09
2022-10-11T09:25:55.897Z,101176.88
2022-10-11T09:29:16.888Z,101179.97
2022-10-11T09:32:23.918Z,101182.41
2022-10-11T09:35:31.928Z,101184.97
2022-10-11T09:38:41.930Z,101187.09
2022-10-11T09:42:07.729Z,101186.06
2022-10-11T09:45:21.057Z,101179.34
2022-10-11T09:48:27.482Z,101175.31
2022-10-11T09:51:29.995Z,101186.31
2022-10-11T09:54:43.561Z,101185.91
2022-10-11T09:57:54.998Z,101181.31
2022-10-11T10:01:11.833Z,101184.00
2022-10-11T10:04:19.294Z,101187.06
2022-10-11T10:07:22.790Z,101188.03
2022-10-11T10:10:27.210Z,101189.09
2022-10-11T10:13:40.718Z,101188.75
2022-10-11T10:16:43.215Z,101180.00
2022-10-11T10:19:52.053Z,101178.03
2022-10-11T10:22:54.491Z,101167.50
2022-10-11T10:26:13.652Z,101160.69
2022-10-11T10:29:18.516Z,101153.25
2022-10-11T10:32:28.118Z,101165.69
2022-10-11T10:35:52.082Z,101162.53
2022-10-11T10:39:01.564Z,101164.78
2022-10-11T10:42:11.257Z,101162.22
2022-10-11T10:45:21.390Z,101162.84
2022-10-11T10:49:01.981Z,101167.47
2022-10-11T10:52:05.286Z,101160.13
2022-10-11T10:55:22.834Z,101160.97
2022-10-11T10:58:47.891Z,101161.81
2022-10-11T11:02:35.486Z,101157.72
2022-10-11T11:05:45.692Z,101151.91
2022-10-11T11:08:48.429Z,101151.44
2022-10-11T11:12:07.560Z,101153.53
2022-10-11T11:15:32.520Z,101155.00
2022-10-11T11:19:23.982Z,101155.81
2022-10-11T11:22:42.904Z,101147.34
2022-10-11T11:26:07.807Z,101152.75
2022-10-11T11:29:36.617Z,101150.72
2022-10-11T11:32:45.545Z,101152.63
2022-10-11T11:35:55.585Z,101147.22
2022-10-11T11:39:01.849Z,101135.22
2022-10-11T11:42:13.629Z,101142.13
2022-10-11T11:45:23.560Z,101139.75
2022-10-11T11:48:26.558Z,101135.94
2022-10-11T11:51:33.937Z,101126.81
2022-10-11T11:54:48.419Z,101128.91
2022-10-11T11:58:29.327Z,101127.94
2022-10-11T12:02:29.318Z,101126.22
2022-10-11T12:05:36.281Z,101127.03
2022-10-11T12:08:42.054Z,101125.16
2022-10-11T12:12:07.045Z,101118.41
2022-10-11T12:15:09.081Z,101121.78
2022-10-11T12:18:16.871Z,101113.62
2022-10-11T12:21:35.015Z,101117.47
2022-10-11T12:24:55.432Z,101116.34
2022-10-11T12:28:00.246Z,101107.56
2022-10-11T12:31:17.249Z,101114.44
2022-10-11T12:34:35.834Z,101112.50
2022-10-11T12:38:04.485Z,101108.37
2022-10-11T12:41:09.282Z,101101.81
2022-10-11T12:44:30.893Z,101101.97
2022-10-11T12:47:55.472Z,101098.44
2022-10-11T12:51:16.269Z,101099.25
2022-10-11T12:54:30.036Z,101099.56
2022-10-11T12:58:07.471Z,101101.50
2022-10-11T13:01:14.097Z,101093.16
2022-10-11T13:04:20.456Z,101096.22
2022-10-11T13:07:23.610Z,101090.94
2022-10-11T13:10:35.799Z,101099.72
2022-10-11T13:14:14.863Z,101091.41
2022-10-11T13:17:21.905Z,101098.78
2022-10-11T13:20:26.189Z,101100.84
2022-10-11T13:23:34.775Z,101101.63
2022-10-11T13:26:38.878Z,101101.50
2022-10-11T13:29:44.909Z,101098.16
2022-10-11T13:32:47.600Z,101100.22
2022-10-11T13:35:51.079Z,101105.00
2022-10-11T13:38:59.510Z,101100.06
2022-10-11T13:42:06.009Z,101102.44
2022-10-11T13:45:16.945Z,101100.53
2022-10-11T13:48:19.272Z,101101.16
2022-10-11T13:51:35.983Z,101103.72
2022-10-11T13:55:03.631Z,101095.72
2022-10-11T13:58:35.663Z,101105.78
2022-10-11T14:01:40.437Z,101099.72
2022-10-11T14:04:42.847Z,101109.31
2022-10-11T14:07:47.851Z,101092.84
2022-10-11T14:10:56.379Z,101103.41
2022-10-11T14:13:59.411Z,101106.91
2022-10-11T14:17:05.873Z,101098.94
2022-10-11T14:20:30.802Z,101102.44
2022-10-11T14:23:35.340Z,101094.44
2022-10-11T14:26:52.889Z,101093.50
2022-10-11T14:30:20.343Z,101105.66
2022-10-11T14:33:25.876Z,101096.84
2022-10-11T14:36:28.228Z,101102.13
2022-10-11T14:39:31.996Z,101095.72
2022-10-11T14:42:34.283Z,101110.91
2022-10-11T14:45:37.140Z,101100.38
2022-10-11T14:48:56.200Z,101101.63
2022-10-11T14:51:59.076Z,101102.75
2022-10-11T14:55:01.849Z,101106.12
2022-10-11T14:58:04.935Z,101108.94
2022-10-11T15:01:10.522Z,101102.72
2022-10-11T15:04:13.367Z,101114.69
2022-10-11T15:07:15.660Z,101106.56
2022-10-11T15:10:23.493Z,101104.94
2022-10-11T15:13:25.878Z,101099.84
2022-10-11T15:16:27.943Z,101111.16
2022-10-11T15:19:30.238Z,101114.69
2022-10-11T15:22:32.271Z,101121.22
2022-10-11T15:25:34.953Z,101115.97
2022-10-11T15:28:37.124Z,101114.50
2022-10-11T15:31:39.565Z,101118.63
2022-10-11T15:34:41.589Z,101122.31
2022-10-11T15:37:44.352Z,101121.34
2022-10-11T15:40:47.945Z,101128.66
2022-10-11T15:43:50.626Z,101124.69
